Time;durP1;ratioP1;P1;durP2;ratioP2;P2;SDS_P1;SDS_P2;PMS_P1;PMS_P2;Temp;Humidity;BMP_temperature;BMP_pressure;BME280_temperature;BME280_humidity;BME280_pressure;Samples;Min_cycle;Max_cycle;Signal;HPM_P1;HPM_P2
2021/04/30 00:01:36;;;;;;;24.00;8.93;;;6.50;99.90;;;;;;5101587;28;20039;-57
2021/04/30 00:04:01;;;;;;;18.33;9.13;;;6.50;99.90;;;;;;5108919;28;20500;-55
2021/04/30 00:06:27;;;;;;;18.17;8.35;;;6.50;99.90;;;;;;5104311;28;20465;-57
2021/04/30 00:08:52;;;;;;;25.48;9.95;;;6.40;99.90;;;;;;5109246;28;20028;-54
2021/04/30 00:11:18;;;;;;;22.77;9.18;;;6.40;99.90;;;;;;5104017;28;20024;-56
2021/04/30 00:13:43;;;;;;;22.27;8.73;;;6.40;99.90;;;;;;5103388;28;20081;-55
2021/04/30 00:16:09;;;;;;;30.10;10.07;;;6.40;99.90;;;;;;5100338;28;20062;-58
2021/04/30 00:18:35;;;;;;;21.15;9.13;;;6.40;99.90;;;;;;5103512;28;20094;-58
2021/04/30 00:21:02;;;;;;;22.42;8.88;;;6.30;99.90;;;;;;5106013;28;20047;-58
2021/04/30 00:23:30;;;;;;;21.15;8.35;;;6.20;99.90;;;;;;5104932;28;20024;-58
2021/04/30 00:25:57;;;;;;;24.90;9.27;;;6.30;99.90;;;;;;5101736;28;20104;-57
2021/04/30 00:28:23;;;;;;;29.40;9.70;;;6.30;99.90;;;;;;5103673;28;20060;-57
2021/04/30 00:30:50;;;;;;;25.58;9.75;;;6.20;99.90;;;;;;5105185;28;20015;-58
2021/04/30 00:33:17;;;;;;;31.63;9.93;;;6.10;99.90;;;;;;5108190;28;20016;-57
2021/04/30 00:35:43;;;;;;;22.17;9.98;;;6.10;99.90;;;;;;5100072;28;20030;-57
2021/04/30 00:38:09;;;;;;;21.08;9.45;;;6.10;99.90;;;;;;5101045;28;20420;-56
2021/04/30 00:40:36;;;;;;;27.05;10.20;;;6.00;99.90;;;;;;5106089;28;20082;-58
2021/04/30 00:43:01;;;;;;;22.73;10.13;;;6.00;99.90;;;;;;5107062;28;20040;-58
2021/04/30 00:45:27;;;;;;;23.00;10.85;;;6.00;99.90;;;;;;5103858;28;20019;-57
2021/04/30 00:47:54;;;;;;;32.03;13.35;;;5.80;99.90;;;;;;5109928;28;20028;-54
2021/04/30 00:50:21;;;;;;;25.88;10.85;;;5.70;99.90;;;;;;5097829;28;20067;-57
2021/04/30 00:52:47;;;;;;;28.45;10.70;;;5.70;99.90;;;;;;5111204;28;20102;-58
2021/04/30 00:55:15;;;;;;;36.25;12.70;;;5.60;99.90;;;;;;5103762;28;20115;-57
2021/04/30 00:57:47;;;;;;;26.98;11.63;;;5.60;99.90;;;;;;5100697;28;20028;-57
2021/04/30 01:00:12;;;;;;;24.25;10.43;;;5.60;99.90;;;;;;5105653;28;20145;-56
2021/04/30 01:02:39;;;;;;;31.52;11.50;;;5.60;99.90;;;;;;5099260;28;20087;-57
2021/04/30 01:05:06;;;;;;;25.58;12.43;;;5.60;99.90;;;;;;5106157;28;20035;-57
2021/04/30 01:07:31;;;;;;;24.50;10.57;;;5.70;99.90;;;;;;5109634;28;20038;-58
2021/04/30 01:09:57;;;;;;;27.88;11.63;;;5.60;99.90;;;;;;5108535;28;20024;-57
2021/04/30 01:12:23;;;;;;;27.35;11.55;;;5.50;99.90;;;;;;5100869;28;20017;-58
2021/04/30 01:14:49;;;;;;;23.30;10.98;;;5.50;99.90;;;;;;5111538;28;20026;-57
2021/04/30 01:17:15;;;;;;;27.38;10.95;;;5.40;99.90;;;;;;5092573;28;20024;-58
2021/04/30 01:19:41;;;;;;;29.13;10.93;;;5.40;99.90;;;;;;5109089;28;20038;-58
2021/04/30 01:22:06;;;;;;;28.92;13.13;;;5.30;99.90;;;;;;5102448;28;20107;-58
2021/04/30 01:24:32;;;;;;;26.83;12.38;;;5.40;99.90;;;;;;5107216;28;20024;-58
2021/04/30 01:26:58;;;;;;;24.25;12.15;;;5.40;99.90;;;;;;5100768;28;20081;-57
2021/04/30 01:29:23;;;;;;;35.35;13.85;;;5.40;99.90;;;;;;5101295;28;20063;-55
2021/04/30 01:31:49;;;;;;;32.55;11.88;;;5.40;99.90;;;;;;5110727;28;20032;-56
2021/04/30 01:34:15;;;;;;;25.95;14.02;;;5.40;99.90;;;;;;5107120;28;20070;-58
2021/04/30 01:36:41;;;;;;;26.67;13.05;;;5.40;99.90;;;;;;5103377;28;20038;-58
2021/04/30 01:39:10;;;;;;;60.58;15.63;;;5.30;99.90;;;;;;5106740;28;20044;-57
2021/04/30 01:41:36;;;;;;;27.00;14.07;;;5.40;99.90;;;;;;5100593;28;20024;-57
2021/04/30 01:44:06;;;;;;;25.38;14.07;;;5.40;99.90;;;;;;5105265;28;20084;-58
2021/04/30 01:46:32;;;;;;;28.38;15.38;;;5.40;99.90;;;;;;5106267;28;20038;-58
2021/04/30 01:48:57;;;;;;;29.23;13.68;;;5.50;99.90;;;;;;5105455;28;20031;-56
2021/04/30 01:51:23;;;;;;;30.75;15.23;;;5.60;99.90;;;;;;5097074;28;20489;-57
2021/04/30 01:53:49;;;;;;;29.33;14.68;;;5.60;99.90;;;;;;5106317;28;20430;-58
2021/04/30 01:56:15;;;;;;;31.92;15.00;;;5.70;99.90;;;;;;5097409;28;20028;-59
2021/04/30 01:58:41;;;;;;;27.77;14.02;;;5.70;99.90;;;;;;5128127;22;20052;-54
2021/04/30 02:01:08;;;;;;;29.05;15.25;;;5.70;99.90;;;;;;5129927;27;20035;-53
2021/04/30 02:03:34;;;;;;;27.77;15.77;;;5.80;99.90;;;;;;5130466;27;20477;-53
2021/04/30 02:05:59;;;;;;;34.97;16.65;;;5.80;99.90;;;;;;5130870;27;20079;-53
2021/04/30 02:08:25;;;;;;;31.27;15.63;;;5.70;99.90;;;;;;5129686;27;20030;-51
2021/04/30 02:10:51;;;;;;;33.17;15.70;;;5.70;99.90;;;;;;5109880;28;20031;-52
2021/04/30 02:13:19;;;;;;;35.80;15.90;;;5.70;99.90;;;;;;5110743;28;20484;-52
2021/04/30 02:15:46;;;;;;;39.17;16.40;;;5.70;99.90;;;;;;5111044;28;20023;-50
2021/04/30 02:18:12;;;;;;;32.08;15.80;;;5.80;99.90;;;;;;5110594;28;20045;-53
2021/04/30 02:20:38;;;;;;;32.50;17.10;;;5.80;99.90;;;;;;5110407;28;20031;-53
2021/04/30 02:23:05;;;;;;;32.70;17.27;;;5.80;99.90;;;;;;5110884;28;20488;-50
2021/04/30 02:25:31;;;;;;;34.63;16.90;;;5.60;99.90;;;;;;5110532;28;20111;-50
2021/04/30 02:27:58;;;;;;;31.25;17.33;;;5.50;99.90;;;;;;5109688;28;20031;-49
2021/04/30 02:30:25;;;;;;;33.25;17.60;;;5.50;99.90;;;;;;5110393;28;20088;-50
2021/04/30 02:32:52;;;;;;;28.75;17.55;;;5.40;99.90;;;;;;5109925;28;20024;-49
2021/04/30 02:35:27;;;;;;;35.55;18.48;;;5.40;99.90;;;;;;5107125;28;20023;-49
2021/04/30 02:37:53;;;;;;;35.25;18.55;;;5.30;99.90;;;;;;5109042;28;20027;-49
2021/04/30 02:40:21;;;;;;;33.67;18.17;;;5.20;99.90;;;;;;5107045;28;20038;-53
2021/04/30 02:42:47;;;;;;;38.58;21.73;;;5.20;99.90;;;;;;5107542;28;20043;-50
2021/04/30 02:45:15;;;;;;;37.42;19.95;;;5.10;99.90;;;;;;5110280;28;20023;-52
2021/04/30 02:47:45;;;;;;;41.20;19.33;;;5.10;99.90;;;;;;5103530;28;20031;-51
2021/04/30 02:50:11;;;;;;;33.25;19.67;;;5.10;99.90;;;;;;5107842;28;20027;-49
2021/04/30 02:52:37;;;;;;;39.60;19.95;;;5.20;99.90;;;;;;5109500;28;20028;-50
2021/04/30 02:55:03;;;;;;;35.80;19.20;;;5.20;99.90;;;;;;5106777;28;20028;-50
2021/04/30 02:57:32;;;;;;;39.67;20.20;;;5.30;99.90;;;;;;5109394;28;20024;-50
2021/04/30 02:59:58;;;;;;;40.30;19.38;;;5.20;99.90;;;;;;5110213;28;20050;-50
2021/04/30 03:02:23;;;;;;;36.20;19.55;;;5.30;99.90;;;;;;5110033;28;20473;-50
2021/04/30 03:04:49;;;;;;;34.75;18.23;;;5.30;99.90;;;;;;5109996;28;20027;-51
2021/04/30 03:07:14;;;;;;;57.60;22.45;;;5.40;99.90;;;;;;5109692;28;20389;-50
2021/04/30 03:09:40;;;;;;;42.90;20.60;;;5.40;99.90;;;;;;5109405;28;20435;-53
2021/04/30 03:12:06;;;;;;;41.10;18.90;;;5.40;99.90;;;;;;5110203;28;20031;-51
2021/04/30 03:14:31;;;;;;;34.03;18.30;;;5.50;99.90;;;;;;5109043;28;20035;-51
2021/04/30 03:16:57;;;;;;;35.45;20.73;;;5.50;99.90;;;;;;5107645;28;20023;-50
2021/04/30 03:19:22;;;;;;;39.45;18.85;;;5.50;99.90;;;;;;5108914;28;20032;-50
2021/04/30 03:21:48;;;;;;;40.75;20.33;;;5.50;99.90;;;;;;5109145;28;20084;-55
2021/04/30 03:24:13;;;;;;;33.97;19.10;;;5.50;99.90;;;;;;5106705;28;20103;-52
2021/04/30 03:26:39;;;;;;;41.60;19.92;;;5.60;99.90;;;;;;5110116;28;20063;-53
2021/04/30 03:29:05;;;;;;;32.20;19.50;;;5.70;99.90;;;;;;5109225;28;20028;-52
2021/04/30 03:31:31;;;;;;;39.03;19.85;;;5.70;99.90;;;;;;5109519;28;20443;-53
2021/04/30 03:33:57;;;;;;;35.83;20.08;;;5.70;99.90;;;;;;5108168;28;20150;-52
2021/04/30 03:36:22;;;;;;;40.65;20.20;;;5.70;99.90;;;;;;5109513;28;20110;-50
2021/04/30 03:38:49;;;;;;;36.35;20.02;;;5.80;99.90;;;;;;5109022;28;20383;-52
2021/04/30 03:41:16;;;;;;;34.03;19.27;;;5.80;99.90;;;;;;5105656;28;20093;-53
2021/04/30 03:43:43;;;;;;;35.10;18.73;;;5.80;99.90;;;;;;5108984;28;20039;-53
2021/04/30 03:46:09;;;;;;;36.72;20.15;;;5.90;99.90;;;;;;5109858;28;20027;-53
2021/04/30 03:48:34;;;;;;;31.77;19.27;;;5.90;99.90;;;;;;5109580;28;20023;-52
2021/04/30 03:51:00;;;;;;;43.30;20.35;;;5.90;99.90;;;;;;5107454;28;20404;-52
2021/04/30 03:53:25;;;;;;;38.95;19.98;;;5.80;99.90;;;;;;5109531;28;20050;-51
2021/04/30 03:55:51;;;;;;;34.65;20.30;;;5.90;99.90;;;;;;5109281;28;20048;-49
2021/04/30 03:58:17;;;;;;;34.90;19.70;;;5.90;99.90;;;;;;5110111;28;20093;-51
2021/04/30 04:00:43;;;;;;;39.25;20.45;;;6.00;99.90;;;;;;5108676;28;20546;-50
2021/04/30 04:03:09;;;;;;;38.22;20.77;;;6.00;99.90;;;;;;5109198;28;20115;-52
2021/04/30 04:05:34;;;;;;;35.83;20.23;;;6.10;99.90;;;;;;5108843;28;20125;-49
2021/04/30 04:08:00;;;;;;;40.25;20.10;;;6.00;99.90;;;;;;5105876;28;20102;-49
2021/04/30 04:10:26;;;;;;;38.03;20.50;;;6.00;99.90;;;;;;5105368;28;20076;-50
2021/04/30 04:12:51;;;;;;;36.63;20.52;;;6.10;99.90;;;;;;5105086;28;20028;-51
2021/04/30 04:15:17;;;;;;;31.48;19.30;;;6.20;99.90;;;;;;5109606;28;20525;-52
2021/04/30 04:17:43;;;;;;;32.28;18.58;;;6.20;99.90;;;;;;5109760;28;20103;-52
2021/04/30 04:20:09;;;;;;;42.28;19.85;;;6.20;99.90;;;;;;5108569;28;20119;-50
2021/04/30 04:22:35;;;;;;;38.25;20.08;;;6.30;99.90;;;;;;5109377;28;20032;-50
2021/04/30 04:25:00;;;;;;;40.33;20.95;;;6.10;99.90;;;;;;5107977;28;20038;-52
2021/04/30 04:27:26;;;;;;;36.72;20.60;;;6.10;99.90;;;;;;5107562;28;20023;-50
2021/04/30 04:29:51;;;;;;;32.50;18.55;;;6.10;99.90;;;;;;5108042;28;20389;-49
2021/04/30 04:32:17;;;;;;;32.75;19.35;;;6.10;99.90;;;;;;5112981;28;20023;-52
2021/04/30 04:34:43;;;;;;;42.67;21.80;;;6.20;99.90;;;;;;5109274;28;20027;-53
2021/04/30 04:37:08;;;;;;;30.05;19.30;;;6.20;99.90;;;;;;5113072;28;20477;-51
2021/04/30 04:39:34;;;;;;;31.70;19.52;;;6.20;99.90;;;;;;5109031;28;20027;-49
2021/04/30 04:42:02;;;;;;;30.42;18.52;;;6.30;99.90;;;;;;5112518;28;20508;-52
2021/04/30 04:44:28;;;;;;;36.30;19.25;;;6.30;99.90;;;;;;5109832;28;20106;-52
2021/04/30 04:46:54;;;;;;;39.92;20.20;;;6.30;99.90;;;;;;5112908;28;20113;-53
2021/04/30 04:49:19;;;;;;;42.88;20.98;;;6.30;99.90;;;;;;5109740;28;20476;-52
2021/04/30 04:51:45;;;;;;;30.90;18.35;;;6.30;99.90;;;;;;5112610;28;20039;-49
2021/04/30 04:54:10;;;;;;;32.80;19.70;;;6.30;99.90;;;;;;5112016;28;20055;-52
2021/04/30 04:56:36;;;;;;;41.90;19.90;;;6.40;99.90;;;;;;5104000;28;20031;-61
2021/04/30 04:59:02;;;;;;;37.72;20.92;;;6.40;99.90;;;;;;5109269;28;20023;-50
2021/04/30 05:01:28;;;;;;;32.45;19.42;;;6.40;99.90;;;;;;5111936;28;20031;-52
2021/04/30 05:03:54;;;;;;;36.13;19.50;;;6.40;99.90;;;;;;5107956;28;20149;-53
2021/04/30 05:06:19;;;;;;;32.85;18.98;;;6.40;99.90;;;;;;5106971;28;20046;-50
2021/04/30 05:08:45;;;;;;;34.10;19.17;;;6.40;99.90;;;;;;5111823;28;20031;-51
2021/04/30 05:11:11;;;;;;;35.53;20.27;;;6.40;99.90;;;;;;5111482;28;20039;-49
2021/04/30 05:13:36;;;;;;;40.78;19.92;;;6.30;99.90;;;;;;5110859;28;20110;-49
2021/04/30 05:16:03;;;;;;;36.75;19.40;;;6.30;99.90;;;;;;5111867;28;20489;-52
2021/04/30 05:18:30;;;;;;;39.25;20.55;;;6.20;99.90;;;;;;5110985;28;20047;-51
2021/04/30 05:20:56;;;;;;;38.75;20.67;;;6.30;99.90;;;;;;5111536;28;20048;-52
2021/04/30 05:23:22;;;;;;;41.10;20.02;;;6.30;99.90;;;;;;5109515;28;20369;-50
2021/04/30 05:25:49;;;;;;;36.75;20.25;;;6.40;99.90;;;;;;5111834;28;20106;-50
2021/04/30 05:28:15;;;;;;;28.30;18.83;;;6.40;99.90;;;;;;5109336;28;20396;-50
2021/04/30 05:30:41;;;;;;;32.47;18.42;;;6.50;99.90;;;;;;5111510;28;20468;-53
2021/04/30 05:33:07;;;;;;;33.05;18.38;;;6.50;99.90;;;;;;5110467;28;20042;-51
2021/04/30 05:35:32;;;;;;;39.72;19.63;;;6.40;99.90;;;;;;5107771;28;20039;-51
2021/04/30 05:37:58;;;;;;;33.17;18.70;;;6.50;99.90;;;;;;5109765;28;20038;-51
2021/04/30 05:40:25;;;;;;;31.90;18.30;;;6.50;99.90;;;;;;5110655;28;20077;-51
2021/04/30 05:42:50;;;;;;;35.13;20.65;;;6.60;99.90;;;;;;5106658;28;20031;-50
2021/04/30 05:45:16;;;;;;;36.78;19.70;;;6.50;99.90;;;;;;5111511;28;20032;-50
2021/04/30 05:47:43;;;;;;;32.25;18.50;;;6.60;99.90;;;;;;5111358;28;20111;-50
2021/04/30 05:50:09;;;;;;;43.65;20.33;;;6.60;99.90;;;;;;5110305;28;20032;-49
2021/04/30 05:52:35;;;;;;;36.30;19.30;;;6.50;99.90;;;;;;5111555;28;20028;-53
2021/04/30 05:55:01;;;;;;;34.47;19.50;;;6.60;99.90;;;;;;5103027;28;20072;-54
2021/04/30 05:57:27;;;;;;;30.67;20.15;;;6.60;99.90;;;;;;5085736;28;20035;-54
2021/04/30 05:59:53;;;;;;;35.72;19.23;;;6.70;99.90;;;;;;5108370;28;20106;-54
2021/04/30 06:02:18;;;;;;;40.25;19.63;;;6.80;99.90;;;;;;5109954;28;20027;-55
2021/04/30 06:04:44;;;;;;;39.35;19.67;;;6.90;99.90;;;;;;5111295;28;20095;-53
2021/04/30 06:07:09;;;;;;;41.17;21.02;;;6.80;99.90;;;;;;5107168;28;20054;-54
2021/04/30 06:09:35;;;;;;;40.83;19.15;;;6.90;99.90;;;;;;5110144;28;20024;-55
2021/04/30 06:12:00;;;;;;;29.63;17.80;;;6.90;99.90;;;;;;5111114;28;20063;-52
2021/04/30 06:14:30;;;;;;;35.67;19.90;;;7.00;99.90;;;;;;5110706;28;20028;-53
2021/04/30 06:16:57;;;;;;;31.55;19.42;;;7.00;99.90;;;;;;5109974;28;20020;-54
2021/04/30 06:19:22;;;;;;;31.60;19.17;;;7.00;99.90;;;;;;5106814;28;20022;-53
2021/04/30 06:21:48;;;;;;;32.88;20.30;;;7.00;99.90;;;;;;5109849;28;20028;-55
2021/04/30 06:24:14;;;;;;;36.42;19.20;;;7.00;99.90;;;;;;5110208;28;20099;-55
2021/04/30 06:26:40;;;;;;;49.97;19.55;;;7.00;99.90;;;;;;5107870;28;20405;-53
2021/04/30 06:29:05;;;;;;;35.75;21.33;;;7.00;99.90;;;;;;5109283;28;20081;-57
2021/04/30 06:31:31;;;;;;;41.67;18.75;;;7.10;99.90;;;;;;5109387;28;20062;-51
2021/04/30 06:33:56;;;;;;;33.72;19.30;;;7.20;99.90;;;;;;5106694;28;20027;-53
2021/04/30 06:36:22;;;;;;;39.38;19.67;;;7.10;99.90;;;;;;5105652;28;20028;-54
2021/04/30 06:38:47;;;;;;;36.88;20.00;;;7.20;99.90;;;;;;5103488;28;20030;-50
2021/04/30 06:41:13;;;;;;;36.25;19.58;;;7.30;99.90;;;;;;5105016;28;20089;-52
2021/04/30 06:43:39;;;;;;;35.70;19.20;;;7.40;99.90;;;;;;5109503;28;20031;-57
2021/04/30 06:46:05;;;;;;;35.67;20.58;;;7.40;99.90;;;;;;5109331;28;20050;-54
2021/04/30 06:48:31;;;;;;;37.38;19.17;;;7.50;99.90;;;;;;5109735;28;20031;-55
2021/04/30 06:50:56;;;;;;;36.85;19.88;;;7.60;99.90;;;;;;5108381;28;20431;-55
2021/04/30 06:53:22;;;;;;;38.35;20.38;;;7.60;99.90;;;;;;5088252;28;20047;-54
2021/04/30 06:55:48;;;;;;;39.83;21.40;;;7.60;99.90;;;;;;5110458;28;20453;-52
2021/04/30 06:58:13;;;;;;;38.10;19.42;;;7.70;99.90;;;;;;5109539;28;20019;-55
2021/04/30 07:00:39;;;;;;;31.17;18.27;;;7.70;99.90;;;;;;5088926;28;20068;-54
2021/04/30 07:03:04;;;;;;;32.72;19.17;;;7.60;99.90;;;;;;5099403;28;20043;-56
2021/04/30 07:05:30;;;;;;;39.88;19.33;;;7.60;99.90;;;;;;5109940;28;20088;-53
2021/04/30 07:07:57;;;;;;;41.60;20.88;;;7.60;99.90;;;;;;5107384;28;20335;-52
2021/04/30 07:10:24;;;;;;;34.20;20.83;;;7.50;99.90;;;;;;5106682;28;20137;-55
2021/04/30 07:12:50;;;;;;;34.28;19.23;;;7.60;99.90;;;;;;5103706;28;20303;-54
2021/04/30 07:15:17;;;;;;;33.22;19.05;;;7.70;99.90;;;;;;5103983;28;20035;-54
2021/04/30 07:17:43;;;;;;;47.08;20.83;;;7.80;99.90;;;;;;5100504;28;20031;-55
2021/04/30 07:20:09;;;;;;;38.85;20.15;;;7.80;99.90;;;;;;5102247;28;20087;-56
2021/04/30 07:22:34;;;;;;;47.67;19.92;;;7.90;99.90;;;;;;5105004;28;20396;-56
2021/04/30 07:25:00;;;;;;;42.75;20.17;;;7.80;99.90;;;;;;5104667;28;20062;-51
2021/04/30 07:27:25;;;;;;;40.60;20.50;;;7.80;99.90;;;;;;5104598;28;20032;-55
2021/04/30 07:29:51;;;;;;;41.85;20.17;;;7.80;99.90;;;;;;5099504;28;20032;-55
2021/04/30 07:32:17;;;;;;;38.58;19.92;;;7.80;99.90;;;;;;5101620;28;20031;-55
2021/04/30 07:34:42;;;;;;;34.22;20.00;;;7.90;99.90;;;;;;5108720;28;20027;-53
2021/04/30 07:37:08;;;;;;;37.05;19.05;;;7.90;99.90;;;;;;5106551;28;20571;-53
2021/04/30 07:39:35;;;;;;;36.92;19.70;;;8.10;99.90;;;;;;5104409;28;20352;-53
2021/04/30 07:42:01;;;;;;;45.42;20.08;;;8.20;99.90;;;;;;5108197;28;20032;-53
2021/04/30 07:44:27;;;;;;;43.67;19.92;;;8.10;99.90;;;;;;5103857;28;20030;-54
2021/04/30 07:46:52;;;;;;;41.13;21.15;;;8.20;99.90;;;;;;5087448;28;20024;-54
2021/04/30 07:49:18;;;;;;;41.53;21.02;;;8.30;99.90;;;;;;5106374;28;20099;-53
2021/04/30 07:51:43;;;;;;;42.40;21.05;;;8.30;99.90;;;;;;5106191;28;20023;-53
2021/04/30 07:54:11;;;;;;;46.50;21.85;;;8.30;99.90;;;;;;5107658;28;20042;-55
2021/04/30 07:56:36;;;;;;;43.22;22.05;;;8.30;99.90;;;;;;5103915;28;20027;-54
2021/04/30 07:59:02;;;;;;;48.65;23.27;;;8.30;99.90;;;;;;5121396;22;20110;-55
2021/04/30 08:01:28;;;;;;;49.72;23.05;;;8.20;99.90;;;;;;5074700;28;20611;-56
2021/04/30 08:03:53;;;;;;;45.33;23.88;;;8.20;99.90;;;;;;5092454;28;20028;-57
2021/04/30 08:06:19;;;;;;;45.80;24.15;;;8.30;99.90;;;;;;5087923;28;20032;-55
2021/04/30 08:08:44;;;;;;;47.28;23.17;;;8.10;99.90;;;;;;5090850;28;20567;-56
2021/04/30 08:11:10;;;;;;;49.13;23.33;;;8.20;99.90;;;;;;5067962;28;20037;-55
2021/04/30 08:13:36;;;;;;;53.92;25.15;;;8.30;99.90;;;;;;5064873;28;20021;-56
2021/04/30 08:16:02;;;;;;;48.65;26.83;;;8.20;99.90;;;;;;5072329;28;20443;-55
2021/04/30 08:18:28;;;;;;;71.03;27.27;;;8.30;99.90;;;;;;5070014;28;20032;-57
2021/04/30 08:20:53;;;;;;;50.15;25.17;;;8.30;99.90;;;;;;5070095;28;20036;-57
2021/04/30 08:23:19;;;;;;;49.40;24.00;;;8.40;99.90;;;;;;5068665;28;20399;-57
2021/04/30 08:25:44;;;;;;;49.70;22.60;;;8.40;99.90;;;;;;5071045;28;20036;-54
2021/04/30 08:28:10;;;;;;;58.60;26.10;;;8.40;99.90;;;;;;5062889;28;20044;-55
2021/04/30 08:30:35;;;;;;;49.35;24.77;;;8.40;99.90;;;;;;5070787;28;20098;-55
2021/04/30 08:33:01;;;;;;;49.15;24.23;;;8.50;99.90;;;;;;5071089;28;20052;-55
2021/04/30 08:35:27;;;;;;;37.85;23.05;;;8.50;99.90;;;;;;5067531;28;20100;-55
2021/04/30 08:37:52;;;;;;;48.65;23.40;;;8.60;99.90;;;;;;5065835;28;20649;-56
2021/04/30 08:40:18;;;;;;;48.33;24.30;;;8.60;99.90;;;;;;5071974;28;20028;-57
2021/04/30 08:42:44;;;;;;;56.65;23.88;;;8.50;99.90;;;;;;5070098;28;20039;-57
2021/04/30 08:45:16;;;;;;;46.03;23.75;;;8.50;99.90;;;;;;5069609;28;20024;-54
2021/04/30 08:47:42;;;;;;;53.08;24.95;;;8.50;99.90;;;;;;5067557;28;20025;-57
2021/04/30 08:50:08;;;;;;;50.58;22.35;;;8.50;99.90;;;;;;5068212;28;20486;-56
2021/04/30 08:52:34;;;;;;;47.22;22.75;;;8.60;99.90;;;;;;5067415;28;20079;-57
2021/04/30 08:55:05;;;;;;;47.80;22.85;;;8.70;99.90;;;;;;5070411;28;20056;-56
2021/04/30 08:57:31;;;;;;;44.83;22.50;;;8.80;99.90;;;;;;5068837;28;20536;-56
2021/04/30 08:59:59;;;;;;;44.33;21.63;;;8.90;99.90;;;;;;5072693;28;20032;-55
2021/04/30 09:02:31;;;;;;;44.17;20.10;;;8.90;99.90;;;;;;5089307;28;20031;-56
2021/04/30 09:04:57;;;;;;;47.92;19.40;;;9.00;99.90;;;;;;5090032;28;20439;-56
2021/04/30 09:07:27;;;;;;;47.70;21.42;;;9.00;99.90;;;;;;5089062;28;20502;-53
2021/04/30 09:10:00;;;;;;;40.95;20.88;;;9.00;99.90;;;;;;5070466;28;20024;-56
2021/04/30 09:12:26;;;;;;;41.42;20.15;;;8.70;99.90;;;;;;5086141;28;20115;-57
2021/04/30 09:14:52;;;;;;;37.08;20.70;;;8.90;99.90;;;;;;5088550;28;20035;-53
2021/04/30 09:17:19;;;;;;;44.67;20.85;;;9.00;99.90;;;;;;5092292;28;20024;-56
2021/04/30 09:19:47;;;;;;;45.30;20.55;;;9.10;99.90;;;;;;5089430;28;20024;-57
2021/04/30 09:22:34;;;;;;;43.08;20.13;;;9.00;99.90;;;;;;5091976;28;20419;-55
2021/04/30 09:25:06;;;;;;;52.97;22.73;;;9.00;99.90;;;;;;5090784;28;20446;-55
2021/04/30 09:27:43;;;;;;;43.65;21.42;;;9.20;99.90;;;;;;5087088;28;20436;-56
2021/04/30 09:30:21;;;;;;;39.90;20.38;;;9.30;99.90;;;;;;5083737;28;20032;-56
2021/04/30 09:33:08;;;;;;;41.20;20.48;;;9.50;99.90;;;;;;5091105;28;20096;-53
2021/04/30 09:35:48;;;;;;;44.22;21.42;;;9.60;99.90;;;;;;5071927;28;20045;-55
2021/04/30 09:38:17;;;;;;;48.60;22.85;;;9.70;99.90;;;;;;5089522;28;20039;-55
2021/04/30 09:40:44;;;;;;;45.45;21.17;;;9.70;99.90;;;;;;5085673;28;20375;-53
2021/04/30 09:43:11;;;;;;;48.67;21.85;;;9.90;99.90;;;;;;5083925;28;20063;-56
2021/04/30 09:45:37;;;;;;;40.92;20.75;;;9.80;99.90;;;;;;5092324;28;20028;-54
2021/04/30 09:48:07;;;;;;;43.88;22.52;;;9.80;99.90;;;;;;5087298;28;20465;-54
2021/04/30 09:50:34;;;;;;;43.38;22.17;;;9.70;99.90;;;;;;5086689;28;20192;-56
2021/04/30 09:53:02;;;;;;;36.75;20.10;;;9.70;99.90;;;;;;5081313;28;20105;-56
2021/04/30 09:55:50;;;;;;;50.67;24.92;;;9.90;99.90;;;;;;5089801;28;20031;-56
2021/04/30 09:58:24;;;;;;;46.08;22.60;;;10.00;99.90;;;;;;5080916;28;20021;-56
2021/04/30 10:00:53;;;;;;;40.17;21.27;;;10.00;99.90;;;;;;5077329;28;20253;-54
2021/04/30 10:03:20;;;;;;;45.97;21.83;;;10.10;99.90;;;;;;5079587;28;20067;-54
2021/04/30 10:06:05;;;;;;;48.50;22.85;;;10.40;99.90;;;;;;5080879;28;20033;-52
2021/04/30 10:08:32;;;;;;;46.15;22.65;;;10.40;99.90;;;;;;5080586;28;20374;-52
2021/04/30 10:10:58;;;;;;;38.85;20.67;;;10.40;99.90;;;;;;5079547;28;20470;-54
2021/04/30 10:13:25;;;;;;;37.97;20.83;;;10.30;99.90;;;;;;5061114;28;20515;-52
2021/04/30 10:15:50;;;;;;;48.63;23.27;;;10.10;99.90;;;;;;5077008;28;20050;-54
2021/04/30 10:18:18;;;;;;;40.17;21.08;;;10.10;99.90;;;;;;5083340;28;20502;-54
2021/04/30 10:20:45;;;;;;;47.72;22.33;;;10.10;99.90;;;;;;5083518;28;20028;-50
2021/04/30 10:23:16;;;;;;;40.50;20.02;;;9.90;99.90;;;;;;5083916;28;20453;-51
2021/04/30 10:25:45;;;;;;;35.55;19.13;;;10.10;99.90;;;;;;5083759;28;20021;-50
2021/04/30 10:28:13;;;;;;;40.75;21.17;;;10.20;99.90;;;;;;5083046;28;20031;-50
2021/04/30 10:30:57;;;;;;;41.67;19.42;;;10.40;99.90;;;;;;5085767;28;20035;-53
2021/04/30 10:33:36;;;;;;;42.35;19.63;;;10.30;99.90;;;;;;5086627;28;20024;-51
2021/04/30 10:36:05;;;;;;;50.47;21.13;;;10.50;99.90;;;;;;5087379;28;20032;-54
2021/04/30 10:38:34;;;;;;;36.47;21.38;;;10.30;99.90;;;;;;5085279;28;20070;-50
2021/04/30 10:41:05;;;;;;;44.58;21.95;;;10.40;99.90;;;;;;5064955;28;20028;-53
2021/04/30 10:43:32;;;;;;;41.50;20.67;;;10.30;99.90;;;;;;5088608;28;20024;-50
2021/04/30 10:46:13;;;;;;;41.30;20.90;;;10.50;99.90;;;;;;5085902;28;20038;-53
2021/04/30 10:49:07;;;;;;;34.83;19.92;;;10.50;99.90;;;;;;5087143;28;20116;-53
2021/04/30 10:51:38;;;;;;;47.03;22.25;;;10.60;99.90;;;;;;5087677;28;20054;-53
2021/04/30 10:54:27;;;;;;;45.88;23.30;;;10.50;99.90;;;;;;5084713;28;20514;-53
2021/04/30 10:57:06;;;;;;;45.28;23.20;;;10.60;99.90;;;;;;5084969;28;20019;-54
2021/04/30 10:59:40;;;;;;;47.35;23.25;;;10.50;99.90;;;;;;5084272;28;20359;-50
2021/04/30 11:02:31;;;;;;;41.58;22.85;;;10.60;99.90;;;;;;5085716;28;20027;-53
2021/04/30 11:05:16;;;;;;;43.95;23.73;;;10.70;99.90;;;;;;5089262;28;20428;-54
2021/04/30 11:07:52;;;;;;;43.15;23.17;;;11.00;99.90;;;;;;5090514;28;20043;-54
2021/04/30 11:10:39;;;;;;;39.63;23.00;;;11.20;99.90;;;;;;5089904;28;20032;-52
2021/04/30 11:13:06;;;;;;;45.47;23.45;;;11.40;99.90;;;;;;5089828;28;20146;-52
2021/04/30 11:15:52;;;;;;;44.85;22.60;;;11.40;99.90;;;;;;5089749;28;20080;-51
2021/04/30 11:18:21;;;;;;;55.65;25.50;;;11.50;99.90;;;;;;5090119;28;20028;-52
2021/04/30 11:21:08;;;;;;;47.20;22.75;;;11.70;99.90;;;;;;5082059;28;20051;-56
2021/04/30 11:23:42;;;;;;;50.08;24.48;;;11.90;99.90;;;;;;5085628;28;20115;-55
2021/04/30 11:26:18;;;;;;;46.85;23.27;;;12.10;99.90;;;;;;5089663;28;20402;-52
2021/04/30 11:28:44;;;;;;;51.65;23.40;;;12.10;99.90;;;;;;5086838;28;20049;-56
2021/04/30 11:31:25;;;;;;;46.30;22.35;;;12.10;99.90;;;;;;5089217;28;20035;-53
2021/04/30 11:34:09;;;;;;;44.53;22.50;;;12.00;99.90;;;;;;5089623;28;20028;-53
2021/04/30 11:36:37;;;;;;;45.85;24.48;;;11.90;99.90;;;;;;5094409;28;20028;-56
2021/04/30 11:39:20;;;;;;;42.50;22.27;;;11.90;99.90;;;;;;5094333;28;20401;-53
2021/04/30 11:41:46;;;;;;;45.10;22.60;;;11.90;99.90;;;;;;5089139;28;20032;-56
2021/04/30 11:44:14;;;;;;;47.05;23.25;;;12.00;99.90;;;;;;5091223;28;20753;-55
2021/04/30 11:46:40;;;;;;;48.80;23.27;;;11.90;99.90;;;;;;5094142;28;20036;-56
2021/04/30 11:49:06;;;;;;;52.42;23.98;;;12.00;99.90;;;;;;5094203;28;20563;-56
2021/04/30 11:51:45;;;;;;;42.25;22.13;;;12.00;99.90;;;;;;5092471;28;20512;-59
2021/04/30 11:54:10;;;;;;;55.20;22.30;;;11.90;99.90;;;;;;5092741;28;20024;-56
2021/04/30 11:56:36;;;;;;;41.53;21.55;;;11.90;99.90;;;;;;5093858;28;20012;-54
2021/04/30 11:59:03;;;;;;;46.63;23.40;;;11.90;99.90;;;;;;5093029;28;20016;-56
2021/04/30 12:01:29;;;;;;;38.45;21.85;;;11.80;99.90;;;;;;5092590;28;20421;-54
2021/04/30 12:03:56;;;;;;;40.22;22.10;;;11.70;99.90;;;;;;5093694;28;20028;-57
2021/04/30 12:06:27;;;;;;;43.42;23.60;;;11.70;99.90;;;;;;5093041;28;20042;-56
2021/04/30 12:08:54;;;;;;;45.65;24.00;;;11.80;99.90;;;;;;5075370;28;20099;-56
2021/04/30 12:11:25;;;;;;;40.55;22.83;;;11.90;99.90;;;;;;5093297;28;20036;-56
2021/04/30 12:13:53;;;;;;;43.85;23.60;;;12.00;99.90;;;;;;5093125;28;20105;-53
2021/04/30 12:16:19;;;;;;;43.60;22.77;;;12.10;99.90;;;;;;5093455;28;20052;-58
2021/04/30 12:18:46;;;;;;;40.15;24.05;;;12.00;99.90;;;;;;5093586;28;20095;-56
2021/04/30 12:21:24;;;;;;;42.65;24.40;;;12.10;99.90;;;;;;5092286;28;20102;-54
2021/04/30 12:23:51;;;;;;;41.85;24.08;;;12.20;99.90;;;;;;5093244;28;20032;-56
2021/04/30 12:26:27;;;;;;;40.30;24.17;;;12.20;99.90;;;;;;5093018;28;20115;-56
2021/04/30 12:28:55;;;;;;;43.70;22.83;;;12.10;99.90;;;;;;5093613;28;20331;-56
2021/04/30 12:31:20;;;;;;;42.80;22.70;;;12.20;99.90;;;;;;5092466;28;20486;-57
2021/04/30 12:33:48;;;;;;;44.45;23.10;;;12.40;99.90;;;;;;5092601;28;20047;-56
2021/04/30 12:36:17;;;;;;;45.03;22.65;;;12.70;99.90;;;;;;5092942;28;20462;-57
2021/04/30 12:38:47;;;;;;;46.00;24.17;;;12.70;99.90;;;;;;5091658;28;20107;-54